Time;durP1;ratioP1;P1;durP2;ratioP2;P2;SDS_P1;SDS_P2;PMS_P1;PMS_P2;Temp;Humidity;BMP_temperature;BMP_pressure;BME280_temperature;BME280_humidity;BME280_pressure;Samples;Min_cycle;Max_cycle;Signal;HPM_P1;HPM_P2
2023/11/20 00:02:11;;;;;;;19.30;4.80;;;;;;;11.26;100.00;100687.25;4942379;29;20059;-68
2023/11/20 00:04:59;;;;;;;15.32;3.58;;;;;;;11.28;100.00;100695.97;4934405;29;20516;-68
2023/11/20 00:07:47;;;;;;;14.73;4.47;;;;;;;11.28;100.00;100689.69;4934834;29;20083;-68
2023/11/20 00:10:38;;;;;;;18.35;4.60;;;;;;;11.26;100.00;100689.16;4935651;29;20206;-70
2023/11/20 00:13:27;;;;;;;16.52;4.35;;;;;;;11.26;100.00;100700.06;4949602;29;20048;-68
2023/11/20 00:16:15;;;;;;;17.00;4.70;;;;;;;11.25;100.00;100690.25;4946754;29;20123;-68
2023/11/20 00:19:06;;;;;;;17.90;4.60;;;;;;;11.26;100.00;100695.44;4934652;29;20100;-69
2023/11/20 00:21:54;;;;;;;14.68;4.18;;;;;;;11.26;100.00;100678.25;4936203;29;20146;-68
2023/11/20 00:24:42;;;;;;;15.07;4.45;;;;;;;11.24;100.00;100685.88;4922106;29;20088;-68
2023/11/20 00:27:30;;;;;;;15.30;4.50;;;;;;;11.25;100.00;100682.06;4937601;28;20062;-69
2023/11/20 00:30:21;;;;;;;13.88;4.28;;;;;;;11.25;100.00;100677.41;4934084;29;20056;-69
2023/11/20 00:33:09;;;;;;;16.73;4.97;;;;;;;11.26;100.00;100678.25;4919369;29;20167;-69
2023/11/20 00:35:57;;;;;;;15.85;4.35;;;;;;;11.27;100.00;100679.88;4910500;29;20056;-69
2023/11/20 00:38:45;;;;;;;19.00;5.28;;;;;;;11.26;100.00;100678.25;4923025;29;20048;-69
2023/11/20 00:41:35;;;;;;;17.00;5.30;;;;;;;11.28;100.00;100686.94;4935942;29;20070;-69
2023/11/20 00:44:24;;;;;;;14.55;4.20;;;;;;;11.28;100.00;100684.22;4922450;29;20052;-69
2023/11/20 00:47:11;;;;;;;17.27;4.25;;;;;;;11.29;100.00;100677.69;4922197;29;20048;-68
2023/11/20 00:49:59;;;;;;;18.38;4.30;;;;;;;11.29;100.00;100689.41;4936147;29;20505;-67
2023/11/20 00:52:47;;;;;;;15.63;4.47;;;;;;;11.31;100.00;100700.06;4937267;29;20106;-70
2023/11/20 00:55:36;;;;;;;20.08;4.32;;;;;;;11.32;100.00;100704.41;4910637;29;20076;-68
2023/11/20 00:58:25;;;;;;;15.95;3.95;;;;;;;11.33;100.00;100707.94;4946745;29;20079;-63
2023/11/20 01:01:13;;;;;;;16.38;4.05;;;;;;;11.34;100.00;100707.69;4928783;29;20076;-67
2023/11/20 01:04:01;;;;;;;16.55;4.47;;;;;;;11.35;100.00;100698.38;4929792;29;20056;-68
2023/11/20 01:06:49;;;;;;;19.50;4.50;;;;;;;11.36;100.00;100712.88;4929852;29;20048;-66
2023/11/20 01:09:41;;;;;;;15.40;4.30;;;;;;;11.36;100.00;100708.22;4921154;29;20040;-66
2023/11/20 01:12:29;;;;;;;12.95;4.18;;;;;;;11.38;100.00;100721.59;4920290;29;20508;-70
2023/11/20 01:15:19;;;;;;;16.83;3.80;;;;;;;11.37;100.00;100707.13;4897308;29;20044;-69
2023/11/20 01:18:07;;;;;;;16.23;4.28;;;;;;;11.36;100.00;100710.97;4905985;29;20059;-68
2023/11/20 01:20:55;;;;;;;19.15;3.92;;;;;;;11.36;100.00;100716.41;4885216;29;20045;-68
2023/11/20 01:23:43;;;;;;;15.80;3.95;;;;;;;11.36;100.00;100713.69;4926104;29;20084;-68
2023/11/20 01:26:31;;;;;;;16.42;3.67;;;;;;;11.36;100.00;100719.13;4928041;29;20059;-68
2023/11/20 01:29:19;;;;;;;14.63;4.00;;;;;;;11.37;100.00;100722.69;4901770;29;20064;-68
2023/11/20 01:32:07;;;;;;;18.17;4.90;;;;;;;11.37;100.00;100722.69;4915980;29;20066;-69
2023/11/20 01:34:55;;;;;;;20.25;4.68;;;;;;;11.38;100.00;100727.88;4904381;29;20056;-68
2023/11/20 01:37:43;;;;;;;22.67;4.43;;;;;;;11.38;100.00;100722.41;4917939;29;20044;-68
2023/11/20 01:40:32;;;;;;;18.60;4.70;;;;;;;11.38;100.00;100725.16;4904039;29;20063;-68
2023/11/20 01:43:20;;;;;;;14.07;4.07;;;;;;;11.37;100.00;100728.13;4902597;29;20052;-69
2023/11/20 01:46:14;;;;;;;16.65;4.90;;;;;;;11.36;100.00;100738.22;4928202;29;20420;-69
2023/11/20 01:49:03;;;;;;;19.40;4.18;;;;;;;11.38;100.00;100736.06;4902674;29;20432;-68
2023/11/20 01:51:52;;;;;;;18.33;4.18;;;;;;;11.39;100.00;100731.41;4902995;29;20052;-68
2023/11/20 01:54:40;;;;;;;15.90;4.38;;;;;;;11.39;100.00;100732.22;4915704;29;20048;-68
2023/11/20 01:57:28;;;;;;;15.73;4.03;;;;;;;11.38;100.00;100741.50;4901666;29;20501;-69
2023/11/20 02:00:19;;;;;;;18.48;4.78;;;;;;;11.36;100.00;100738.22;4920098;29;20062;-68
2023/11/20 02:03:07;;;;;;;26.17;5.05;;;;;;;11.36;100.00;100732.78;4908584;29;20056;-70
2023/11/20 02:05:55;;;;;;;23.33;5.40;;;;;;;11.38;100.00;100735.25;4935227;29;20055;-69
2023/11/20 02:08:43;;;;;;;20.25;5.45;;;;;;;11.35;100.00;100731.13;4933206;29;20055;-69
2023/11/20 02:11:31;;;;;;;23.70;4.97;;;;;;;11.36;100.00;100735.50;4935993;29;20044;-69
2023/11/20 02:14:19;;;;;;;20.05;5.40;;;;;;;11.34;100.00;100729.50;4909928;29;20187;-70
2023/11/20 02:17:07;;;;;;;23.27;5.00;;;;;;;11.33;100.00;100729.78;4932871;29;20052;-70
2023/11/20 02:19:56;;;;;;;21.58;5.30;;;;;;;11.34;100.00;100723.25;4908122;29;20048;-69
2023/11/20 02:22:44;;;;;;;16.83;4.57;;;;;;;11.34;100.00;100734.97;4933178;29;20044;-69
2023/11/20 02:25:32;;;;;;;20.42;5.40;;;;;;;11.33;100.00;100733.34;4935561;29;20134;-69
2023/11/20 02:28:27;;;;;;;18.83;4.68;;;;;;;11.32;100.00;100731.69;4935878;28;20492;-68
2023/11/20 02:31:15;;;;;;;18.55;4.78;;;;;;;11.33;100.00;100729.78;4919618;29;20568;-69
2023/11/20 02:34:04;;;;;;;19.55;4.65;;;;;;;11.31;100.00;100724.59;4919947;29;20050;-68
2023/11/20 02:36:52;;;;;;;17.45;4.65;;;;;;;11.29;100.00;100726.78;4908726;29;20195;-67
2023/11/20 02:39:40;;;;;;;17.75;4.53;;;;;;;11.25;100.00;100721.06;4918123;29;20051;-68
2023/11/20 02:42:28;;;;;;;22.60;4.68;;;;;;;11.26;100.00;100732.81;4920956;29;20126;-68
2023/11/20 02:45:16;;;;;;;18.95;4.75;;;;;;;11.24;100.00;100727.63;4936146;29;20047;-68
2023/11/20 02:48:05;;;;;;;16.65;4.40;;;;;;;11.24;100.00;100722.16;4922621;29;20523;-69
2023/11/20 02:50:53;;;;;;;16.50;4.32;;;;;;;11.24;100.00;100724.06;4925017;29;20051;-67
2023/11/20 02:53:41;;;;;;;14.80;4.03;;;;;;;11.24;100.00;100724.06;4924534;29;20130;-68
2023/11/20 02:56:29;;;;;;;18.38;5.15;;;;;;;11.23;100.00;100716.97;4960035;29;20051;-69
2023/11/20 02:59:17;;;;;;;16.80;4.75;;;;;;;11.21;100.00;100714.53;4936700;29;20122;-69
2023/11/20 03:02:05;;;;;;;18.40;4.45;;;;;;;11.20;100.00;100717.53;4926625;29;20119;-69
2023/11/20 03:04:54;;;;;;;16.73;4.18;;;;;;;11.19;100.00;100713.19;4925601;29;20533;-69
2023/11/20 03:07:43;;;;;;;20.70;4.63;;;;;;;11.17;100.00;100718.09;4923756;29;20045;-69
2023/11/20 03:10:31;;;;;;;16.80;4.45;;;;;;;11.17;100.00;100718.09;4920646;29;20048;-68
2023/11/20 03:13:23;;;;;;;19.60;4.75;;;;;;;11.17;100.00;100720.81;4923566;29;20076;-69
2023/11/20 03:16:12;;;;;;;25.00;5.10;;;;;;;11.17;100.00;100723.53;4923421;29;20048;-69
2023/11/20 03:19:00;;;;;;;17.13;4.38;;;;;;;11.16;100.00;100727.34;4908758;29;20077;-69
2023/11/20 03:21:48;;;;;;;27.70;5.50;;;;;;;11.14;100.00;100735.00;4909773;29;20206;-69
2023/11/20 03:24:37;;;;;;;18.13;4.55;;;;;;;11.12;100.00;100723.53;4909141;29;20437;-69
2023/11/20 03:27:25;;;;;;;23.42;4.95;;;;;;;11.11;100.00;100736.34;4918456;29;20050;-70
2023/11/20 03:30:13;;;;;;;19.77;4.45;;;;;;;11.12;100.00;100726.28;4904643;29;20139;-69
2023/11/20 03:33:01;;;;;;;16.92;4.63;;;;;;;11.10;100.00;100731.97;4919811;29;20609;-70
2023/11/20 03:35:49;;;;;;;21.25;5.05;;;;;;;11.09;100.00;100733.91;4931552;29;20080;-69
2023/11/20 03:38:37;;;;;;;18.30;4.85;;;;;;;11.09;100.00;100730.38;4917141;29;20052;-69
2023/11/20 03:41:25;;;;;;;25.17;5.38;;;;;;;11.08;100.00;100729.53;4890994;29;20135;-68
2023/11/20 03:44:13;;;;;;;17.55;5.07;;;;;;;11.07;100.00;100736.09;4905790;29;20123;-66
2023/11/20 03:47:02;;;;;;;19.13;4.32;;;;;;;11.06;100.00;100739.91;4901901;29;20059;-68
2023/11/20 03:49:50;;;;;;;16.00;4.13;;;;;;;11.07;100.00;100747.00;4919313;29;20074;-69
2023/11/20 03:52:38;;;;;;;18.50;4.75;;;;;;;11.07;100.00;100752.44;4886645;29;20131;-68
2023/11/20 03:55:26;;;;;;;17.05;4.72;;;;;;;11.07;100.00;100748.91;4927338;29;20176;-70
2023/11/20 03:58:14;;;;;;;16.92;4.03;;;;;;;11.04;100.00;100752.16;4918902;29;20052;-69
2023/11/20 04:01:02;;;;;;;17.13;4.50;;;;;;;11.04;100.00;100757.59;4927511;29;20059;-69
2023/11/20 04:03:51;;;;;;;15.50;4.40;;;;;;;11.04;100.00;100747.53;4936250;29;20394;-67
2023/11/20 04:06:40;;;;;;;22.00;5.15;;;;;;;11.05;100.00;100751.88;4948033;29;20052;-68
2023/11/20 04:09:29;;;;;;;21.13;5.25;;;;;;;11.04;100.00;100750.28;4935478;29;20056;-68
2023/11/20 04:12:17;;;;;;;19.52;5.00;;;;;;;11.06;100.00;100755.44;4936372;29;20435;-68
2023/11/20 04:15:09;;;;;;;19.73;5.00;;;;;;;11.05;100.00;100754.63;4911230;29;20052;-69
2023/11/20 04:17:58;;;;;;;20.63;5.32;;;;;;;11.05;100.00;100746.44;4937608;29;20163;-69
2023/11/20 04:20:47;;;;;;;17.42;4.38;;;;;;;11.07;100.00;100754.34;4936060;29;20063;-69
2023/11/20 04:23:35;;;;;;;20.98;5.35;;;;;;;11.05;100.00;100754.63;4920979;29;20128;-69
2023/11/20 04:26:23;;;;;;;16.67;4.60;;;;;;;11.05;100.00;100751.88;4920042;29;20120;-69
2023/11/20 04:29:13;;;;;;;19.15;5.03;;;;;;;11.06;100.00;100744.53;4904139;29;20805;-69
2023/11/20 04:32:01;;;;;;;17.88;4.80;;;;;;;11.03;100.00;100745.06;4914652;29;20158;-67
2023/11/20 04:34:49;;;;;;;23.40;5.38;;;;;;;11.02;100.00;100759.81;4909476;29;20138;-69
2023/11/20 04:37:37;;;;;;;17.67;4.38;;;;;;;10.98;100.00;100745.88;4945910;29;20070;-68
2023/11/20 04:40:25;;;;;;;18.08;4.38;;;;;;;10.97;100.00;100747.00;4921883;29;20127;-68
2023/11/20 04:43:13;;;;;;;19.50;4.68;;;;;;;10.96;100.00;100739.06;4934376;29;20080;-69
2023/11/20 04:46:01;;;;;;;21.10;5.30;;;;;;;10.93;100.00;100750.53;4918084;29;20052;-68
2023/11/20 04:48:50;;;;;;;22.00;5.13;;;;;;;10.90;100.00;100745.63;4906308;29;20048;-69
2023/11/20 04:51:38;;;;;;;21.45;5.05;;;;;;;10.85;100.00;100755.44;4937023;29;20534;-67
2023/11/20 04:54:27;;;;;;;22.80;5.30;;;;;;;10.85;100.00;100749.16;4911905;29;20515;-68
2023/11/20 04:57:16;;;;;;;22.42;5.53;;;;;;;10.85;100.00;100747.25;4936328;29;20071;-69
2023/11/20 05:00:04;;;;;;;18.27;4.55;;;;;;;10.84;100.00;100750.25;4934978;29;20106;-68
2023/11/20 05:02:52;;;;;;;16.48;4.13;;;;;;;10.85;100.00;100744.53;4931666;29;20662;-68
2023/11/20 05:05:42;;;;;;;17.58;3.95;;;;;;;10.87;100.00;100736.91;4915001;29;20047;-69
2023/11/20 05:08:30;;;;;;;16.13;3.95;;;;;;;10.92;100.00;100741.53;4943214;29;20088;-68
2023/11/20 05:11:19;;;;;;;17.98;4.80;;;;;;;10.93;100.00;100740.44;4921903;29;20083;-69
2023/11/20 05:14:07;;;;;;;21.85;4.60;;;;;;;10.93;100.00;100745.91;4920444;29;20118;-69
2023/11/20 05:16:55;;;;;;;18.90;4.40;;;;;;;10.92;100.00;100736.09;4935549;29;20055;-70
2023/11/20 05:19:43;;;;;;;20.73;5.15;;;;;;;10.93;100.00;100740.44;4922571;29;20440;-67
2023/11/20 05:22:34;;;;;;;17.02;4.75;;;;;;;10.95;100.00;100743.72;4933320;29;20052;-64
2023/11/20 05:25:22;;;;;;;20.23;4.80;;;;;;;10.92;100.00;100747.00;4939375;29;20051;-65
2023/11/20 05:28:20;;;;;;;18.37;4.43;;;;;;;10.93;100.00;100745.91;4954288;28;10001366;-69
2023/11/20 05:31:09;;;;;;;20.30;5.03;;;;;;;10.91;100.00;100748.06;4957192;29;20283;-68
2023/11/20 05:33:57;;;;;;;19.98;4.90;;;;;;;10.94;100.00;100743.97;4950341;29;20044;-66
2023/11/20 05:36:45;;;;;;;21.25;5.20;;;;;;;10.91;100.00;100753.53;4964281;29;20058;-69
2023/11/20 05:39:33;;;;;;;21.92;4.95;;;;;;;10.91;100.00;100750.78;4941293;29;20051;-69
2023/11/20 05:42:21;;;;;;;21.33;4.93;;;;;;;10.90;100.00;100745.63;4943396;29;20055;-69
2023/11/20 05:45:09;;;;;;;28.67;6.00;;;;;;;10.87;100.00;100753.25;4917754;29;20145;-68
2023/11/20 05:47:57;;;;;;;14.77;4.40;;;;;;;10.89;100.00;100755.69;4931835;29;20056;-68
2023/11/20 05:50:45;;;;;;;17.90;4.78;;;;;;;10.88;100.00;100748.63;4931665;29;20105;-70
2023/11/20 05:53:35;;;;;;;21.80;5.03;;;;;;;10.87;100.00;100757.88;4930526;29;20051;-69
2023/11/20 05:56:23;;;;;;;17.63;4.82;;;;;;;10.89;100.00;100752.97;4930628;29;20044;-69
2023/11/20 05:59:11;;;;;;;26.27;5.32;;;;;;;10.93;100.00;100762.25;4932157;29;20090;-69
2023/11/20 06:02:00;;;;;;;16.77;4.80;;;;;;;10.90;100.00;100757.34;4917098;29;20166;-68
2023/11/20 06:04:48;;;;;;;17.35;5.00;;;;;;;10.88;100.00;100759.53;4933013;28;20134;-71
2023/11/20 06:07:36;;;;;;;19.13;4.78;;;;;;;10.89;100.00;100758.41;4932190;29;20091;-69
2023/11/20 06:10:24;;;;;;;21.20;5.13;;;;;;;10.88;100.00;100765.78;4917796;29;20122;-69
2023/11/20 06:13:12;;;;;;;19.70;4.55;;;;;;;10.84;100.00;100759.22;4916361;29;20056;-69
2023/11/20 06:16:01;;;;;;;22.10;4.95;;;;;;;10.84;100.00;100755.69;4943774;29;20074;-70
2023/11/20 06:18:49;;;;;;;22.30;5.68;;;;;;;10.82;100.00;100755.16;4918423;29;20055;-69
2023/11/20 06:21:49;;;;;;;17.27;4.77;;;;;;;10.81;100.00;100758.97;4931479;29;20051;-68
2023/11/20 06:24:37;;;;;;;20.60;4.70;;;;;;;10.83;100.00;100768.50;4946349;29;20067;-68
2023/11/20 06:27:25;;;;;;;23.00;5.88;;;;;;;10.83;100.00;100767.69;4920576;29;20058;-69
2023/11/20 06:30:13;;;;;;;21.75;5.20;;;;;;;10.82;100.00;100768.78;4920433;29;20062;-68
2023/11/20 06:33:03;;;;;;;22.13;5.85;;;;;;;10.80;100.00;100770.94;4936740;28;20155;-70
2023/11/20 06:35:51;;;;;;;15.60;4.70;;;;;;;10.81;100.00;100772.59;4921178;29;20067;-70
2023/11/20 06:38:40;;;;;;;21.38;4.85;;;;;;;10.81;100.00;100769.88;4936302;28;20574;-69
2023/11/20 06:41:29;;;;;;;19.25;5.25;;;;;;;10.82;100.00;100776.94;4918853;29;20103;-69
2023/11/20 06:44:17;;;;;;;24.20;6.53;;;;;;;10.82;100.00;100779.69;4919965;29;20082;-68
2023/11/20 06:47:07;;;;;;;23.48;5.80;;;;;;;10.77;100.00;100779.66;4921128;29;20047;-70
2023/11/20 06:49:55;;;;;;;19.95;5.13;;;;;;;10.76;100.00;100794.41;4920527;29;20572;-70
2023/11/20 06:52:43;;;;;;;28.15;5.72;;;;;;;10.81;100.00;100797.94;4934403;29;20508;-70
2023/11/20 06:55:31;;;;;;;19.00;4.68;;;;;;;10.79;100.00;100785.69;4933711;29;20416;-69
2023/11/20 06:58:19;;;;;;;24.15;6.03;;;;;;;10.77;100.00;100790.56;4935171;29;20051;-69
2023/11/20 07:01:08;;;;;;;21.35;5.20;;;;;;;10.76;100.00;100788.94;4915576;29;20115;-68
2023/11/20 07:03:58;;;;;;;22.55;5.43;;;;;;;10.78;100.00;100789.50;4904768;29;20048;-68
2023/11/20 07:06:49;;;;;;;24.65;5.45;;;;;;;10.77;100.00;100793.28;4913706;29;20071;-68
2023/11/20 07:09:37;;;;;;;26.05;6.25;;;;;;;10.77;100.00;100796.03;4927714;29;20043;-69
2023/11/20 07:12:25;;;;;;;20.85;4.25;;;;;;;10.76;100.00;100791.69;4901514;29;20079;-71
2023/11/20 07:15:13;;;;;;;20.55;4.97;;;;;;;10.72;100.00;100793.28;4926780;29;20127;-69
2023/11/20 07:18:02;;;;;;;22.70;5.40;;;;;;;10.70;100.00;100800.91;4926893;29;20044;-68
2023/11/20 07:20:50;;;;;;;24.52;5.63;;;;;;;10.68;100.00;100811.25;4928305;29;20541;-68
2023/11/20 07:23:38;;;;;;;21.50;5.38;;;;;;;10.70;100.00;100806.38;4927763;29;20572;-69
2023/11/20 07:26:26;;;;;;;18.40;4.75;;;;;;;10.68;100.00;100808.53;4928132;29;20040;-68
2023/11/20 07:29:14;;;;;;;22.85;5.03;;;;;;;10.63;100.00;100815.63;4913111;29;20509;-68
2023/11/20 07:32:02;;;;;;;21.98;5.93;;;;;;;10.58;100.00;100818.34;4914718;29;20112;-69
2023/11/20 07:34:50;;;;;;;21.60;6.22;;;;;;;10.53;100.00;100817.50;4915848;29;20048;-67
2023/11/20 07:37:39;;;;;;;25.35;6.40;;;;;;;10.54;100.00;100819.16;4905222;29;20513;-67
2023/11/20 07:40:28;;;;;;;28.80;7.05;;;;;;;10.50;100.00;100827.03;4918548;29;20054;-69
2023/11/20 07:43:16;;;;;;;26.88;6.32;;;;;;;10.57;100.00;100838.50;4897209;29;20052;-66
2023/11/20 07:46:09;;;;;;;21.63;5.45;;;;;;;10.62;100.00;100833.03;4922645;29;20064;-67
2023/11/20 07:48:58;;;;;;;17.70;4.97;;;;;;;10.62;100.00;100838.50;4909223;29;20048;-67
2023/11/20 07:51:46;;;;;;;21.45;5.22;;;;;;;10.61;100.00;100823.25;4921768;29;20055;-67
2023/11/20 07:54:34;;;;;;;21.27;5.60;;;;;;;10.58;100.00;100831.13;4891018;29;20053;-67
2023/11/20 07:57:26;;;;;;;22.48;5.70;;;;;;;10.60;100.00;100823.50;4931294;29;20051;-66
2023/11/20 08:00:15;;;;;;;27.27;6.25;;;;;;;10.59;100.00;100828.16;4929518;29;20066;-68
2023/11/20 08:03:03;;;;;;;24.23;6.65;;;;;;;10.66;100.00;100833.34;4950796;29;20134;-68
2023/11/20 08:05:51;;;;;;;22.80;5.63;;;;;;;10.60;100.00;100829.78;4937266;29;20052;-67
2023/11/20 08:08:39;;;;;;;24.08;6.05;;;;;;;10.61;100.00;100836.06;4937525;29;20520;-67
2023/11/20 08:11:27;;;;;;;27.77;6.50;;;;;;;10.64;100.00;100835.50;4936238;29;20051;-69
2023/11/20 08:14:15;;;;;;;22.55;5.72;;;;;;;10.61;100.00;100828.69;4937409;29;20514;-68
2023/11/20 08:17:04;;;;;;;24.30;5.63;;;;;;;10.58;100.00;100834.69;4936850;29;20052;-67
2023/11/20 08:19:52;;;;;;;23.13;5.20;;;;;;;10.59;100.00;100828.16;4937370;29;20160;-70
2023/11/20 08:22:40;;;;;;;23.48;5.82;;;;;;;10.52;100.00;100830.31;4937086;29;20060;-68
2023/11/20 08:25:28;;;;;;;28.20;5.90;;;;;;;10.50;100.00;100829.75;4937098;28;20176;-68
2023/11/20 08:28:16;;;;;;;27.17;5.57;;;;;;;10.49;100.00;100843.66;4936754;29;20051;-68
2023/11/20 08:31:05;;;;;;;24.50;5.97;;;;;;;10.47;100.00;100835.72;4937879;28;20154;-67
2023/11/20 08:33:54;;;;;;;26.35;6.10;;;;;;;10.44;100.00;100849.91;4936929;29;20098;-68
2023/11/20 08:36:45;;;;;;;22.50;5.70;;;;;;;10.50;100.00;100845.28;4935834;29;20075;-68
2023/11/20 08:39:35;;;;;;;25.08;5.32;;;;;;;10.55;100.00;100837.94;4921236;29;20501;-68
2023/11/20 08:42:26;;;;;;;28.85;6.75;;;;;;;10.58;100.00;100842.88;4936033;29;20047;-67
2023/11/20 08:45:14;;;;;;;20.75;5.10;;;;;;;10.57;100.00;100841.22;4924068;29;20111;-68
2023/11/20 08:48:05;;;;;;;21.48;5.63;;;;;;;10.58;100.00;100837.41;4937709;29;20150;-67
2023/11/20 08:50:54;;;;;;;19.55;5.30;;;;;;;10.58;100.00;100834.69;4923306;29;20591;-67
2023/11/20 08:53:42;;;;;;;21.75;5.72;;;;;;;10.62;100.00;100833.03;4923538;29;20067;-68
2023/11/20 08:56:30;;;;;;;33.33;6.60;;;;;;;10.63;100.00;100829.25;4922374;29;20130;-68
2023/11/20 08:59:19;;;;;;;23.75;6.07;;;;;;;10.60;100.00;100829.78;4922433;29;20195;-67
2023/11/20 09:02:07;;;;;;;17.10;5.65;;;;;;;10.62;100.00;100826.78;4922257;29;20055;-68
2023/11/20 09:04:55;;;;;;;22.52;6.18;;;;;;;10.64;100.00;100819.97;4948155;29;20051;-67
2023/11/20 09:07:43;;;;;;;22.25;6.47;;;;;;;10.67;100.00;100824.06;4909440;29;20063;-67
2023/11/20 09:10:31;;;;;;;24.25;6.93;;;;;;;10.69;100.00;100821.09;4934891;29;20520;-67
2023/11/20 09:13:19;;;;;;;22.90;6.32;;;;;;;10.70;100.00;100820.00;4922179;29;20099;-67
2023/11/20 09:16:08;;;;;;;18.15;5.60;;;;;;;10.70;100.00;100815.34;4948171;29;20052;-68
2023/11/20 09:18:56;;;;;;;20.13;6.18;;;;;;;10.69;100.00;100821.09;4909344;29;20047;-68
2023/11/20 09:21:44;;;;;;;27.95;6.22;;;;;;;10.71;100.00;100811.56;4947198;29;20048;-68
2023/11/20 09:24:32;;;;;;;22.95;6.07;;;;;;;10.76;100.00;100816.19;4922254;29;20405;-68
2023/11/20 09:27:20;;;;;;;24.27;5.85;;;;;;;10.72;100.00;100832.25;4936566;29;20521;-68
2023/11/20 09:30:10;;;;;;;18.05;5.15;;;;;;;10.70;100.00;100822.72;4936450;29;20054;-67
2023/11/20 09:32:59;;;;;;;21.23;5.88;;;;;;;10.70;100.00;100822.72;4909309;29;20127;-68
2023/11/20 09:35:48;;;;;;;17.17;4.75;;;;;;;10.71;100.00;100824.38;4922819;29;20194;-68
2023/11/20 09:38:37;;;;;;;27.65;5.95;;;;;;;10.71;100.00;100833.34;4936149;29;20051;-70
2023/11/20 09:41:26;;;;;;;25.45;5.97;;;;;;;10.73;100.00;100825.72;4939047;29;20555;-69
2023/11/20 09:44:15;;;;;;;20.70;5.57;;;;;;;10.78;100.00;100819.47;4938798;29;20048;-68
2023/11/20 09:47:03;;;;;;;26.05;5.85;;;;;;;10.82;100.00;100826.00;4912379;29;20134;-68
2023/11/20 09:49:55;;;;;;;16.75;5.20;;;;;;;10.89;100.00;100818.38;4921637;29;20055;-68
2023/11/20 09:52:43;;;;;;;26.23;6.45;;;;;;;10.83;100.00;100827.66;4956637;28;20047;-68
2023/11/20 09:55:31;;;;;;;20.38;5.68;;;;;;;10.82;100.00;100823.28;4942764;29;20044;-68
2023/11/20 09:58:19;;;;;;;19.70;6.20;;;;;;;10.87;100.00;100823.28;4936891;29;20504;-68
2023/11/20 10:01:10;;;;;;;20.67;6.88;;;;;;;10.86;100.00;100821.66;4930015;29;20062;-65
2023/11/20 10:03:59;;;;;;;21.25;5.88;;;;;;;10.85;100.00;100812.69;4951050;29;20102;-68
2023/11/20 10:06:48;;;;;;;26.13;6.90;;;;;;;10.85;100.00;100811.88;4914918;29;20054;-67
2023/11/20 10:09:36;;;;;;;18.60;5.63;;;;;;;10.87;100.00;100812.38;4939125;29;20040;-68
2023/11/20 10:12:27;;;;;;;20.00;5.97;;;;;;;10.83;100.00;100808.59;4939823;29;20051;-67
2023/11/20 10:15:16;;;;;;;22.52;6.47;;;;;;;10.82;100.00;100798.75;4913236;29;20044;-68
2023/11/20 10:18:05;;;;;;;16.52;4.85;;;;;;;10.80;100.00;100803.66;4914502;29;20087;-68
2023/11/20 10:20:53;;;;;;;16.33;4.80;;;;;;;10.80;100.00;100799.03;4940703;29;20472;-68
2023/11/20 10:23:42;;;;;;;20.60;5.45;;;;;;;10.81;100.00;100797.13;4913312;29;20052;-68
2023/11/20 10:26:30;;;;;;;21.42;5.40;;;;;;;10.80;100.00;100790.88;4951707;29;20055;-68
2023/11/20 10:29:20;;;;;;;17.13;4.50;;;;;;;10.82;100.00;100794.16;4939655;29;20052;-70
2023/11/20 10:32:08;;;;;;;16.30;5.60;;;;;;;10.87;100.00;100785.13;4938671;29;20134;-68
2023/11/20 10:35:17;;;;;;;22.83;6.03;;;;;;;10.95;100.00;100787.34;4925068;29;20515;-68
2023/11/20 10:38:07;;;;;;;17.67;5.65;;;;;;;10.99;100.00;100788.44;4925525;29;20130;-68
2023/11/20 10:40:58;;;;;;;18.33;5.47;;;;;;;11.02;100.00;100771.53;4920497;29;20129;-68
2023/11/20 10:43:46;;;;;;;21.30;5.50;;;;;;;11.11;100.00;100770.97;4919970;29;20059;-68
2023/11/20 10:46:34;;;;;;;21.52;5.75;;;;;;;11.18;100.00;100774.25;4921623;29;20052;-66
2023/11/20 10:49:24;;;;;;;21.00;5.50;;;;;;;11.18;100.00;100766.06;4938480;29;20055;-67
2023/11/20 10:52:18;;;;;;;18.73;5.13;;;;;;;11.26;100.00;100760.06;4925545;29;20408;-68
2023/11/20 10:55:12;;;;;;;19.83;5.32;;;;;;;11.29;100.00;100765.78;4951635;29;20112;-68
2023/11/20 10:58:03;;;;;;;17.35;4.72;;;;;;;11.27;100.00;100756.25;4937203;29;20039;-68
2023/11/20 11:00:53;;;;;;;28.45;6.07;;;;;;;11.28;100.00;100755.97;4919019;29;20056;-72
2023/11/20 11:03:42;;;;;;;17.30;5.03;;;;;;;11.27;100.00;100754.31;4930893;29;20048;-67
2023/11/20 11:06:32;;;;;;;19.35;4.90;;;;;;;11.26;100.00;100751.91;4904421;29;20514;-67
2023/11/20 11:09:21;;;;;;;17.65;4.95;;;;;;;11.26;100.00;100749.97;4950765;28;20058;-69
2023/11/20 11:12:10;;;;;;;20.38;5.13;;;;;;;11.27;100.00;100750.78;4940217;29;20246;-68
2023/11/20 11:14:58;;;;;;;19.85;5.18;;;;;;;11.26;100.00;100751.91;4931380;28;20520;-68
2023/11/20 11:17:50;;;;;;;22.38;5.13;;;;;;;11.25;100.00;100739.34;4931499;29;20103;-69
2023/11/20 11:20:42;;;;;;;25.15;5.68;;;;;;;11.22;100.00;100748.06;4922364;29;20062;-71
2023/11/20 11:23:42;;;;;;;17.55;4.70;;;;;;;11.22;100.00;100742.63;4922884;29;20497;-71
2023/11/20 11:26:48;;;;;;;18.65;4.43;;;;;;;11.20;100.00;100747.53;4923491;29;20529;-69
2023/11/20 11:29:56;;;;;;;17.04;4.40;;;;;;;11.19;100.00;100754.09;4909203;28;10000471;-69
2023/11/20 11:32:52;;;;;;;19.33;4.75;;;;;;;11.20;100.00;100747.53;4577107;29;10000955;-69
2023/11/20 11:35:49;;;;;;;;;;;;;;;11.22;100.00;100748.88;4927985;29;20093;-68
2023/11/20 11:38:49;;;;;;;17.20;4.13;;;;;;;11.22;100.00;100743.44;4939351;29;20012;-69
2023/11/20 11:41:53;;;;;;;14.32;4.10;;;;;;;11.22;100.00;100739.88;4907189;29;20052;-69
2023/11/20 11:44:59;;;;;;;16.35;4.50;;;;;;;11.27;100.00;100740.69;4934354;29;20075;-69
2023/11/20 11:47:48;;;;;;;15.70;3.58;;;;;;;11.29;100.00;100738.50;4932645;29;20195;-69
2023/11/20 11:50:37;;;;;;;21.63;6.47;;;;;;;11.41;100.00;100740.94;4933729;29;20051;-69
2023/11/20 11:53:25;;;;;;;17.52;5.10;;;;;;;11.44;100.00;100734.13;4933476;29;20449;-69
2023/11/20 11:56:14;;;;;;;17.80;4.18;;;;;;;11.43;100.00;100738.78;4917876;29;20087;-70
2023/11/20 11:59:05;;;;;;;19.73;4.75;;;;;;;11.49;100.00;100737.66;4920687;29;20051;-67
2023/11/20 12:01:53;;;;;;;15.18;3.80;;;;;;;11.47;100.00;100734.41;4921067;29;20058;-68
2023/11/20 12:04:56;;;;;;;19.13;6.45;;;;;;;11.46;100.00;100721.84;4933657;29;20071;-69
2023/11/20 12:07:50;;;;;;;15.27;4.05;;;;;;;11.39;100.00;100726.75;4918889;29;20416;-71
2023/11/20 12:10:52;;;;;;;13.63;4.13;;;;;;;11.39;100.00;100721.31;4945683;29;20043;-68
2023/11/20 12:14:08;;;;;;;15.73;4.38;;;;;;;11.41;100.00;100716.41;4919311;29;20051;-69
2023/11/20 12:17:01;;;;;;;14.23;4.00;;;;;;;11.40;100.00;100711.22;4932485;29;20044;-69
2023/11/20 12:19:51;;;;;;;18.83;5.72;;;;;;;11.45;100.00;100701.13;4947054;28;20504;-70
2023/11/20 12:22:39;;;;;;;14.38;3.72;;;;;;;11.49;100.00;100704.09;4946374;29;20055;-71
2023/11/20 12:25:28;;;;;;;15.75;4.43;;;;;;;11.48;100.00;100703.28;4950573;29;20127;-71
2023/11/20 12:28:16;;;;;;;14.05;4.28;;;;;;;11.48;100.00;100697.03;4940178;29;20416;-68
2023/11/20 12:31:05;;;;;;;14.50;4.03;;;;;;;11.44;100.00;100696.75;4935481;29;20051;-68
2023/11/20 12:33:53;;;;;;;16.60;3.75;;;;;;;11.44;100.00;100696.75;4962094;28;20070;-69
2023/11/20 12:36:41;;;;;;;16.17;4.50;;;;;;;11.44;100.00;100702.19;4920705;29;20056;-69
2023/11/20 12:39:29;;;;;;;16.90;3.97;;;;;;;11.42;100.00;100696.19;4958093;28;20055;-69
2023/11/20 12:42:18;;;;;;;15.05;3.58;;;;;;;11.44;100.00;100693.19;4934458;29;20048;-69
2023/11/20 12:45:06;;;;;;;16.35;4.57;;;;;;;11.44;100.00;100688.56;4940275;29;20055;-69
2023/11/20 12:47:54;;;;;;;11.20;3.88;;;;;;;11.46;100.00;100683.66;4921872;29;20156;-68
2023/11/20 12:50:49;;;;;;;14.43;4.00;;;;;;;11.44;100.00;100683.09;4909732;29;20090;-68